sensor_id;sensor_type;location;lat;lon;timestamp;temperature;humidity
2463;DHT22;1243;54.298;10.172;2023-08-06T00:02:21;16.10;1.00
2463;DHT22;1243;54.298;10.172;2023-08-06T00:04:47;16.10;1.00
2463;DHT22;1243;54.298;10.172;2023-08-06T00:07:12;16.10;1.00
2463;DHT22;1243;54.298;10.172;2023-08-06T00:09:38;16.10;1.00
2463;DHT22;1243;54.298;10.172;2023-08-06T00:12:04;16.10;1.00
2463;DHT22;1243;54.298;10.172;2023-08-06T00:14:30;16.10;1.00
2463;DHT22;1243;54.298;10.172;2023-08-06T00:16:56;16.00;1.00
2463;DHT22;1243;54.298;10.172;2023-08-06T00:19:22;16.00;1.00
2463;DHT22;1243;54.298;10.172;2023-08-06T00:21:47;16.00;1.00
2463;DHT22;1243;54.298;10.172;2023-08-06T00:24:13;15.90;1.00
2463;DHT22;1243;54.298;10.172;2023-08-06T00:26:39;15.80;1.00
2463;DHT22;1243;54.298;10.172;2023-08-06T00:29:05;15.80;4.40
2463;DHT22;1243;54.298;10.172;2023-08-06T00:31:30;15.80;9.70
2463;DHT22;1243;54.298;10.172;2023-08-06T00:33:56;15.90;17.80
2463;DHT22;1243;54.298;10.172;2023-08-06T00:36:22;15.90;19.60
2463;DHT22;1243;54.298;10.172;2023-08-06T00:38:47;15.90;23.30
2463;DHT22;1243;54.298;10.172;2023-08-06T00:41:13;15.90;25.90
2463;DHT22;1243;54.298;10.172;2023-08-06T00:43:39;15.90;30.60
2463;DHT22;1243;54.298;10.172;2023-08-06T00:46:04;15.90;34.00
2463;DHT22;1243;54.298;10.172;2023-08-06T00:48:31;15.90;38.10
2463;DHT22;1243;54.298;10.172;2023-08-06T00:50:57;15.90;39.80
2463;DHT22;1243;54.298;10.172;2023-08-06T00:53:22;16.00;45.10
2463;DHT22;1243;54.298;10.172;2023-08-06T00:55:48;16.10;44.00
2463;DHT22;1243;54.298;10.172;2023-08-06T00:58:15;16.10;34.40
2463;DHT22;1243;54.298;10.172;2023-08-06T01:00:41;16.00;30.60
2463;DHT22;1243;54.298;10.172;2023-08-06T01:03:07;16.10;32.30
2463;DHT22;1243;54.298;10.172;2023-08-06T01:05:33;16.10;28.70
2463;DHT22;1243;54.298;10.172;2023-08-06T01:11:38;16.10;24.10
2463;DHT22;1243;54.298;10.172;2023-08-06T01:14:23;16.10;18.80
2463;DHT22;1243;54.298;10.172;2023-08-06T01:16:51;16.00;16.20
2463;DHT22;1243;54.298;10.172;2023-08-06T01:19:21;16.00;16.70
2463;DHT22;1243;54.298;10.172;2023-08-06T01:21:47;15.90;15.40
2463;DHT22;1243;54.298;10.172;2023-08-06T01:24:12;16.00;18.40
2463;DHT22;1243;54.298;10.172;2023-08-06T01:30:04;16.00;23.60
2463;DHT22;1243;54.298;10.172;2023-08-06T01:32:34;16.00;24.70
2463;DHT22;1243;54.298;10.172;2023-08-06T01:35:02;15.90;25.60
2463;DHT22;1243;54.298;10.172;2023-08-06T01:37:28;15.90;26.40
2463;DHT22;1243;54.298;10.172;2023-08-06T01:39:54;15.90;29.40
2463;DHT22;1243;54.298;10.172;2023-08-06T01:42:20;15.90;32.60
2463;DHT22;1243;54.298;10.172;2023-08-06T01:44:46;15.80;36.60
2463;DHT22;1243;54.298;10.172;2023-08-06T01:47:11;15.80;40.40
2463;DHT22;1243;54.298;10.172;2023-08-06T01:49:37;15.80;45.10
2463;DHT22;1243;54.298;10.172;2023-08-06T01:52:03;15.80;48.90
2463;DHT22;1243;54.298;10.172;2023-08-06T01:54:29;15.80;54.50
2463;DHT22;1243;54.298;10.172;2023-08-06T01:56:55;15.90;61.20
2463;DHT22;1243;54.298;10.172;2023-08-06T01:59:21;15.90;65.00
2463;DHT22;1243;54.298;10.172;2023-08-06T02:01:46;15.90;66.40
2463;DHT22;1243;54.298;10.172;2023-08-06T02:04:12;15.90;71.30
2463;DHT22;1243;54.298;10.172;2023-08-06T02:06:38;15.90;73.50
2463;DHT22;1243;54.298;10.172;2023-08-06T02:09:03;15.80;74.20
2463;DHT22;1243;54.298;10.172;2023-08-06T02:11:29;15.80;81.00
2463;DHT22;1243;54.298;10.172;2023-08-06T02:13:55;15.80;86.40
2463;DHT22;1243;54.298;10.172;2023-08-06T02:16:20;15.80;94.20
2463;DHT22;1243;54.298;10.172;2023-08-06T02:18:46;15.80;94.10
2463;DHT22;1243;54.298;10.172;2023-08-06T02:21:12;15.70;94.10
2463;DHT22;1243;54.298;10.172;2023-08-06T02:23:37;15.70;94.10
2463;DHT22;1243;54.298;10.172;2023-08-06T02:26:04;15.70;94.10
2463;DHT22;1243;54.298;10.172;2023-08-06T02:28:30;15.70;94.10
2463;DHT22;1243;54.298;10.172;2023-08-06T02:30:56;15.80;99.90
2463;DHT22;1243;54.298;10.172;2023-08-06T02:33:22;15.80;99.90
2463;DHT22;1243;54.298;10.172;2023-08-06T02:35:48;15.80;99.90
2463;DHT22;1243;54.298;10.172;2023-08-06T02:38:14;15.80;99.90
2463;DHT22;1243;54.298;10.172;2023-08-06T02:40:46;15.80;99.90
2463;DHT22;1243;54.298;10.172;2023-08-06T02:43:12;15.90;99.90
2463;DHT22;1243;54.298;10.172;2023-08-06T02:45:38;15.90;99.90
2463;DHT22;1243;54.298;10.172;2023-08-06T02:48:04;16.00;99.90
2463;DHT22;1243;54.298;10.172;2023-08-06T02:50:30;16.00;99.90
2463;DHT22;1243;54.298;10.172;2023-08-06T02:52:56;16.00;99.90
2463;DHT22;1243;54.298;10.172;2023-08-06T02:55:22;15.90;99.90
2463;DHT22;1243;54.298;10.172;2023-08-06T02:57:47;15.90;99.90
2463;DHT22;1243;54.298;10.172;2023-08-06T03:00:13;15.90;99.90
2463;DHT22;1243;54.298;10.172;2023-08-06T03:02:39;15.90;99.90
2463;DHT22;1243;54.298;10.172;2023-08-06T03:05:04;15.90;99.90
2463;DHT22;1243;54.298;10.172;2023-08-06T03:07:31;16.00;99.90
2463;DHT22;1243;54.298;10.172;2023-08-06T03:09:59;16.00;99.90
2463;DHT22;1243;54.298;10.172;2023-08-06T03:12:27;16.00;99.90
2463;DHT22;1243;54.298;10.172;2023-08-06T03:14:52;16.00;99.90
2463;DHT22;1243;54.298;10.172;2023-08-06T03:17:18;16.00;99.90
2463;DHT22;1243;54.298;10.172;2023-08-06T03:19:44;15.90;99.90
2463;DHT22;1243;54.298;10.172;2023-08-06T03:22:10;15.90;99.90
2463;DHT22;1243;54.298;10.172;2023-08-06T03:24:35;15.80;99.90
2463;DHT22;1243;54.298;10.172;2023-08-06T03:27:01;15.80;99.90
2463;DHT22;1243;54.298;10.172;2023-08-06T03:29:27;15.70;99.90
2463;DHT22;1243;54.298;10.172;2023-08-06T03:31:53;15.80;99.90
2463;DHT22;1243;54.298;10.172;2023-08-06T03:34:18;15.70;99.90
2463;DHT22;1243;54.298;10.172;2023-08-06T03:36:44;15.60;99.90
2463;DHT22;1243;54.298;10.172;2023-08-06T03:39:10;15.60;99.90
2463;DHT22;1243;54.298;10.172;2023-08-06T03:41:35;15.60;99.90
2463;DHT22;1243;54.298;10.172;2023-08-06T03:44:01;15.50;99.90
2463;DHT22;1243;54.298;10.172;2023-08-06T03:46:29;15.40;99.90
2463;DHT22;1243;54.298;10.172;2023-08-06T03:48:55;15.40;99.90
2463;DHT22;1243;54.298;10.172;2023-08-06T03:51:22;15.40;99.90
2463;DHT22;1243;54.298;10.172;2023-08-06T03:53:48;15.30;99.90
2463;DHT22;1243;54.298;10.172;2023-08-06T03:56:13;15.30;99.90
2463;DHT22;1243;54.298;10.172;2023-08-06T03:58:39;15.30;99.90
2463;DHT22;1243;54.298;10.172;2023-08-06T04:01:05;15.30;99.90
2463;DHT22;1243;54.298;10.172;2023-08-06T04:03:30;15.30;99.90
2463;DHT22;1243;54.298;10.172;2023-08-06T04:05:56;15.30;99.90
2463;DHT22;1243;54.298;10.172;2023-08-06T04:08:21;15.30;99.90
2463;DHT22;1243;54.298;10.172;2023-08-06T04:10:53;15.30;99.90
2463;DHT22;1243;54.298;10.172;2023-08-06T04:13:19;15.30;99.90
2463;DHT22;1243;54.298;10.172;2023-08-06T04:15:46;15.40;99.90
2463;DHT22;1243;54.298;10.172;2023-08-06T04:18:12;15.40;99.90
2463;DHT22;1243;54.298;10.172;2023-08-06T04:20:47;15.50;99.90
2463;DHT22;1243;54.298;10.172;2023-08-06T04:23:14;15.50;99.90
2463;DHT22;1243;54.298;10.172;2023-08-06T04:25:40;15.50;99.90
2463;DHT22;1243;54.298;10.172;2023-08-06T04:28:07;15.60;99.90
2463;DHT22;1243;54.298;10.172;2023-08-06T04:30:32;15.60;99.90
2463;DHT22;1243;54.298;10.172;2023-08-06T04:32:58;15.60;99.90
2463;DHT22;1243;54.298;10.172;2023-08-06T04:35:24;15.60;99.90
2463;DHT22;1243;54.298;10.172;2023-08-06T04:37:50;15.60;99.90
2463;DHT22;1243;54.298;10.172;2023-08-06T04:40:15;15.50;99.90
2463;DHT22;1243;54.298;10.172;2023-08-06T04:42:41;15.60;99.90
2463;DHT22;1243;54.298;10.172;2023-08-06T04:45:07;15.70;99.90
2463;DHT22;1243;54.298;10.172;2023-08-06T04:47:33;15.70;99.90
2463;DHT22;1243;54.298;10.172;2023-08-06T04:49:59;15.70;99.90
2463;DHT22;1243;54.298;10.172;2023-08-06T04:52:24;15.70;99.90
2463;DHT22;1243;54.298;10.172;2023-08-06T04:54:54;15.70;99.90
2463;DHT22;1243;54.298;10.172;2023-08-06T04:57:19;15.80;99.90
2463;DHT22;1243;54.298;10.172;2023-08-06T04:59:45;15.90;99.90
2463;DHT22;1243;54.298;10.172;2023-08-06T05:02:11;16.00;99.90
2463;DHT22;1243;54.298;10.172;2023-08-06T05:04:37;16.00;99.90
2463;DHT22;1243;54.298;10.172;2023-08-06T05:07:03;16.00;99.90
2463;DHT22;1243;54.298;10.172;2023-08-06T05:09:29;16.00;99.90
2463;DHT22;1243;54.298;10.172;2023-08-06T05:11:54;15.90;99.90
2463;DHT22;1243;54.298;10.172;2023-08-06T05:14:20;16.00;99.90
2463;DHT22;1243;54.298;10.172;2023-08-06T05:16:46;16.00;99.90
2463;DHT22;1243;54.298;10.172;2023-08-06T05:19:11;16.00;99.90
2463;DHT22;1243;54.298;10.172;2023-08-06T05:21:37;16.10;99.90
2463;DHT22;1243;54.298;10.172;2023-08-06T05:24:03;16.00;99.90
2463;DHT22;1243;54.298;10.172;2023-08-06T05:26:29;15.90;99.90
2463;DHT22;1243;54.298;10.172;2023-08-06T05:28:54;16.00;99.90
2463;DHT22;1243;54.298;10.172;2023-08-06T05:31:20;15.90;99.90
2463;DHT22;1243;54.298;10.172;2023-08-06T05:33:46;15.90;99.90
2463;DHT22;1243;54.298;10.172;2023-08-06T05:36:11;15.90;99.90
2463;DHT22;1243;54.298;10.172;2023-08-06T05:38:37;15.90;99.90
2463;DHT22;1243;54.298;10.172;2023-08-06T05:41:03;16.00;99.90
2463;DHT22;1243;54.298;10.172;2023-08-06T05:43:29;16.10;99.90
2463;DHT22;1243;54.298;10.172;2023-08-06T05:45:56;16.20;99.90
2463;DHT22;1243;54.298;10.172;2023-08-06T05:48:22;16.10;99.90
2463;DHT22;1243;54.298;10.172;2023-08-06T05:50:50;16.30;99.90
2463;DHT22;1243;54.298;10.172;2023-08-06T05:53:16;16.30;99.90
2463;DHT22;1243;54.298;10.172;2023-08-06T05:55:41;16.30;99.90
2463;DHT22;1243;54.298;10.172;2023-08-06T05:58:07;16.30;99.90
2463;DHT22;1243;54.298;10.172;2023-08-06T06:00:33;16.30;99.90
2463;DHT22;1243;54.298;10.172;2023-08-06T06:02:58;16.40;99.90
2463;DHT22;1243;54.298;10.172;2023-08-06T06:05:24;16.40;99.90
2463;DHT22;1243;54.298;10.172;2023-08-06T06:07:50;16.50;99.90
2463;DHT22;1243;54.298;10.172;2023-08-06T06:10:15;16.50;99.90
2463;DHT22;1243;54.298;10.172;2023-08-06T06:12:41;16.60;99.90
2463;DHT22;1243;54.298;10.172;2023-08-06T06:15:07;16.60;99.90
2463;DHT22;1243;54.298;10.172;2023-08-06T06:17:33;16.60;99.90
2463;DHT22;1243;54.298;10.172;2023-08-06T06:19:58;16.50;99.90
2463;DHT22;1243;54.298;10.172;2023-08-06T06:22:24;16.50;99.90
2463;DHT22;1243;54.298;10.172;2023-08-06T06:24:50;16.60;99.90
2463;DHT22;1243;54.298;10.172;2023-08-06T06:27:16;16.70;99.90
2463;DHT22;1243;54.298;10.172;2023-08-06T06:29:41;16.70;99.90
2463;DHT22;1243;54.298;10.172;2023-08-06T06:32:07;16.70;99.90
2463;DHT22;1243;54.298;10.172;2023-08-06T06:34:33;16.70;99.90
2463;DHT22;1243;54.298;10.172;2023-08-06T06:36:58;16.70;99.90
2463;DHT22;1243;54.298;10.172;2023-08-06T06:39:24;16.80;99.90
2463;DHT22;1243;54.298;10.172;2023-08-06T06:41:50;16.90;99.90
2463;DHT22;1243;54.298;10.172;2023-08-06T06:44:15;16.80;99.90
2463;DHT22;1243;54.298;10.172;2023-08-06T06:46:41;16.80;99.90
2463;DHT22;1243;54.298;10.172;2023-08-06T06:49:07;16.80;99.90
2463;DHT22;1243;54.298;10.172;2023-08-06T06:51:32;16.70;99.90
2463;DHT22;1243;54.298;10.172;2023-08-06T06:53:58;16.80;99.90
2463;DHT22;1243;54.298;10.172;2023-08-06T06:56:24;16.80;99.90
2463;DHT22;1243;54.298;10.172;2023-08-06T06:58:50;16.70;99.90
2463;DHT22;1243;54.298;10.172;2023-08-06T07:01:15;16.70;99.90
2463;DHT22;1243;54.298;10.172;2023-08-06T07:03:41;16.90;99.90
2463;DHT22;1243;54.298;10.172;2023-08-06T07:06:07;16.90;99.90
2463;DHT22;1243;54.298;10.172;2023-08-06T07:08:33;17.00;99.90
2463;DHT22;1243;54.298;10.172;2023-08-06T07:11:02;17.10;99.90
2463;DHT22;1243;54.298;10.172;2023-08-06T07:13:29;17.20;99.90
2463;DHT22;1243;54.298;10.172;2023-08-06T07:15:55;17.30;99.90
2463;DHT22;1243;54.298;10.172;2023-08-06T07:18:21;17.40;99.90
2463;DHT22;1243;54.298;10.172;2023-08-06T07:20:51;17.40;99.90
2463;DHT22;1243;54.298;10.172;2023-08-06T07:23:18;17.40;99.90
2463;DHT22;1243;54.298;10.172;2023-08-06T07:25:44;17.40;99.90
2463;DHT22;1243;54.298;10.172;2023-08-06T07:28:10;17.40;99.90
2463;DHT22;1243;54.298;10.172;2023-08-06T07:30:39;17.40;99.90
2463;DHT22;1243;54.298;10.172;2023-08-06T07:33:05;17.50;99.90
2463;DHT22;1243;54.298;10.172;2023-08-06T07:35:30;17.40;99.90
2463;DHT22;1243;54.298;10.172;2023-08-06T07:37:56;17.50;99.90
2463;DHT22;1243;54.298;10.172;2023-08-06T07:40:22;17.50;99.90
2463;DHT22;1243;54.298;10.172;2023-08-06T07:42:47;17.70;99.90
2463;DHT22;1243;54.298;10.172;2023-08-06T07:45:14;17.60;99.90
2463;DHT22;1243;54.298;10.172;2023-08-06T07:47:40;17.50;99.90
2463;DHT22;1243;54.298;10.172;2023-08-06T07:50:06;17.50;99.90
2463;DHT22;1243;54.298;10.172;2023-08-06T07:52:32;17.50;99.90
2463;DHT22;1243;54.298;10.172;2023-08-06T07:54:57;17.50;99.90
2463;DHT22;1243;54.298;10.172;2023-08-06T07:57:24;17.50;99.90
2463;DHT22;1243;54.298;10.172;2023-08-06T07:59:50;17.50;99.90
2463;DHT22;1243;54.298;10.172;2023-08-06T08:02:15;17.40;99.90
2463;DHT22;1243;54.298;10.172;2023-08-06T08:04:41;17.40;99.90
2463;DHT22;1243;54.298;10.172;2023-08-06T08:07:09;17.40;99.90
2463;DHT22;1243;54.298;10.172;2023-08-06T08:09:35;17.40;99.80
2463;DHT22;1243;54.298;10.172;2023-08-06T08:12:01;17.50;99.10
2463;DHT22;1243;54.298;10.172;2023-08-06T08:14:28;17.40;94.70
2463;DHT22;1243;54.298;10.172;2023-08-06T08:16:54;17.30;94.70
2463;DHT22;1243;54.298;10.172;2023-08-06T08:19:20;17.30;94.70
2463;DHT22;1243;54.298;10.172;2023-08-06T08:21:46;17.30;94.70
2463;DHT22;1243;54.298;10.172;2023-08-06T08:24:12;17.40;94.70
2463;DHT22;1243;54.298;10.172;2023-08-06T08:26:38;17.60;94.80
2463;DHT22;1243;54.298;10.172;2023-08-06T08:29:04;17.70;94.80
2463;DHT22;1243;54.298;10.172;2023-08-06T08:31:29;17.70;94.90
2463;DHT22;1243;54.298;10.172;2023-08-06T08:33:55;17.70;93.60
2463;DHT22;1243;54.298;10.172;2023-08-06T08:36:21;17.90;95.00
2463;DHT22;1243;54.298;10.172;2023-08-06T08:38:47;18.00;91.30
2463;DHT22;1243;54.298;10.172;2023-08-06T08:41:12;18.20;94.90
2463;DHT22;1243;54.298;10.172;2023-08-06T08:43:40;18.40;90.70
2463;DHT22;1243;54.298;10.172;2023-08-06T08:46:06;18.40;51.70
2463;DHT22;1243;54.298;10.172;2023-08-06T08:48:33;18.50;53.40
2463;DHT22;1243;54.298;10.172;2023-08-06T08:50:59;18.50;40.20
2463;DHT22;1243;54.298;10.172;2023-08-06T08:53:26;18.50;18.30
2463;DHT22;1243;54.298;10.172;2023-08-06T08:55:53;18.40;6.20
2463;DHT22;1243;54.298;10.172;2023-08-06T08:58:20;18.50;8.30
2463;DHT22;1243;54.298;10.172;2023-08-06T09:00:46;18.60;15.00
2463;DHT22;1243;54.298;10.172;2023-08-06T09:03:14;18.50;1.00
2463;DHT22;1243;54.298;10.172;2023-08-06T09:05:44;18.50;1.00
2463;DHT22;1243;54.298;10.172;2023-08-06T09:08:11;18.60;1.00
2463;DHT22;1243;54.298;10.172;2023-08-06T09:10:40;18.60;1.00
2463;DHT22;1243;54.298;10.172;2023-08-06T09:13:06;18.50;1.00
2463;DHT22;1243;54.298;10.172;2023-08-06T09:15:32;18.60;1.00
2463;DHT22;1243;54.298;10.172;2023-08-06T09:17:59;18.50;1.00
2463;DHT22;1243;54.298;10.172;2023-08-06T09:20:24;18.40;1.00
2463;DHT22;1243;54.298;10.172;2023-08-06T09:22:53;18.50;1.00
2463;DHT22;1243;54.298;10.172;2023-08-06T09:25:23;18.60;1.00
2463;DHT22;1243;54.298;10.172;2023-08-06T09:27:52;18.80;1.00
2463;DHT22;1243;54.298;10.172;2023-08-06T09:30:35;18.90;1.00
2463;DHT22;1243;54.298;10.172;2023-08-06T09:33:01;19.10;1.00
2463;DHT22;1243;54.298;10.172;2023-08-06T09:35:31;19.10;1.00
2463;DHT22;1243;54.298;10.172;2023-08-06T09:38:09;19.10;1.00
2463;DHT22;1243;54.298;10.172;2023-08-06T09:40:36;19.10;1.00
2463;DHT22;1243;54.298;10.172;2023-08-06T09:43:02;19.00;1.00
2463;DHT22;1243;54.298;10.172;2023-08-06T09:45:34;19.00;1.00
2463;DHT22;1243;54.298;10.172;2023-08-06T09:48:06;19.00;1.00
2463;DHT22;1243;54.298;10.172;2023-08-06T09:50:33;19.00;1.00
2463;DHT22;1243;54.298;10.172;2023-08-06T09:53:02;19.00;1.00
2463;DHT22;1243;54.298;10.172;2023-08-06T09:55:28;19.00;1.00
2463;DHT22;1243;54.298;10.172;2023-08-06T09:57:55;19.10;1.00
2463;DHT22;1243;54.298;10.172;2023-08-06T10:00:21;19.10;1.00
2463;DHT22;1243;54.298;10.172;2023-08-06T10:02:49;19.10;1.00
2463;DHT22;1243;54.298;10.172;2023-08-06T10:05:17;19.10;1.00
2463;DHT22;1243;54.298;10.172;2023-08-06T10:07:44;19.00;1.00
2463;DHT22;1243;54.298;10.172;2023-08-06T10:10:10;18.90;1.00
2463;DHT22;1243;54.298;10.172;2023-08-06T10:12:39;18.80;1.00
2463;DHT22;1243;54.298;10.172;2023-08-06T10:15:09;18.80;1.00
2463;DHT22;1243;54.298;10.172;2023-08-06T10:17:37;18.90;1.00
2463;DHT22;1243;54.298;10.172;2023-08-06T10:20:05;18.80;1.00
2463;DHT22;1243;54.298;10.172;2023-08-06T10:22:33;18.80;1.00
2463;DHT22;1243;54.298;10.172;2023-08-06T10:25:02;18.80;1.00
2463;DHT22;1243;54.298;10.172;2023-08-06T10:30:29;19.00;1.00
2463;DHT22;1243;54.298;10.172;2023-08-06T10:33:02;19.10;1.00
2463;DHT22;1243;54.298;10.172;2023-08-06T10:38:15;19.20;1.00
2463;DHT22;1243;54.298;10.172;2023-08-06T10:43:41;19.10;1.00
2463;DHT22;1243;54.298;10.172;2023-08-06T10:46:21;19.10;1.00
2463;DHT22;1243;54.298;10.172;2023-08-06T10:48:47;19.10;1.00
2463;DHT22;1243;54.298;10.172;2023-08-06T10:51:14;19.20;1.00
2463;DHT22;1243;54.298;10.172;2023-08-06T10:53:47;19.30;1.00
2463;DHT22;1243;54.298;10.172;2023-08-06T10:56:20;19.10;1.00
2463;DHT22;1243;54.298;10.172;2023-08-06T10:58:51;19.10;1.00
2463;DHT22;1243;54.298;10.172;2023-08-06T11:01:17;19.30;1.00
2463;DHT22;1243;54.298;10.172;2023-08-06T11:03:45;19.40;1.00
2463;DHT22;1243;54.298;10.172;2023-08-06T11:06:17;19.60;1.00
2463;DHT22;1243;54.298;10.172;2023-08-06T11:08:51;19.60;1.00
2463;DHT22;1243;54.298;10.172;2023-08-06T11:11:17;19.70;1.00
2463;DHT22;1243;54.298;10.172;2023-08-06T11:13:44;19.70;1.00
2463;DHT22;1243;54.298;10.172;2023-08-06T11:16:16;19.70;1.00
2463;DHT22;1243;54.298;10.172;2023-08-06T11:18:43;19.80;1.00
2463;DHT22;1243;54.298;10.172;2023-08-06T11:21:08;20.20;1.00
2463;DHT22;1243;54.298;10.172;2023-08-06T11:23:35;20.60;1.00
2463;DHT22;1243;54.298;10.172;2023-08-06T11:26:01;20.90;1.00
2463;DHT22;1243;54.298;10.172;2023-08-06T11:28:27;21.10;1.00
2463;DHT22;1243;54.298;10.172;2023-08-06T11:30:53;21.30;1.00
2463;DHT22;1243;54.298;10.172;2023-08-06T11:33:24;21.40;1.00
2463;DHT22;1243;54.298;10.172;2023-08-06T11:35:55;21.40;1.00
2463;DHT22;1243;54.298;10.172;2023-08-06T11:38:21;21.50;1.00
2463;DHT22;1243;54.298;10.172;2023-08-06T11:40:50;21.40;1.00
2463;DHT22;1243;54.298;10.172;2023-08-06T11:43:21;21.20;1.00
2463;DHT22;1243;54.298;10.172;2023-08-06T11:45:50;21.20;1.00
2463;DHT22;1243;54.298;10.172;2023-08-06T11:48:17;21.10;1.00
2463;DHT22;1243;54.298;10.172;2023-08-06T11:50:43;21.10;1.00
2463;DHT22;1243;54.298;10.172;2023-08-06T11:53:12;20.90;1.00
2463;DHT22;1243;54.298;10.172;2023-08-06T11:55:39;20.70;1.00
2463;DHT22;1243;54.298;10.172;2023-08-06T11:58:05;20.60;1.00
2463;DHT22;1243;54.298;10.172;2023-08-06T12:00:31;20.70;1.00
2463;DHT22;1243;54.298;10.172;2023-08-06T12:02:57;20.40;1.00
2463;DHT22;1243;54.298;10.172;2023-08-06T12:05:23;20.20;1.00
2463;DHT22;1243;54.298;10.172;2023-08-06T12:07:57;20.20;1.00
2463;DHT22;1243;54.298;10.172;2023-08-06T12:10:25;20.20;1.00
2463;DHT22;1243;54.298;10.172;2023-08-06T12:12:51;20.30;1.00
2463;DHT22;1243;54.298;10.172;2023-08-06T12:15:17;20.30;1.00
2463;DHT22;1243;54.298;10.172;2023-08-06T12:17:43;20.70;1.00
2463;DHT22;1243;54.298;10.172;2023-08-06T12:20:10;21.00;1.00
2463;DHT22;1243;54.298;10.172;2023-08-06T12:22:36;21.10;1.00
2463;DHT22;1243;54.298;10.172;2023-08-06T12:25:05;20.90;1.00
2463;DHT22;1243;54.298;10.172;2023-08-06T12:27:36;20.90;1.00
2463;DHT22;1243;54.298;10.172;2023-08-06T12:30:03;21.00;1.00
2463;DHT22;1243;54.298;10.172;2023-08-06T12:32:29;21.20;1.00
2463;DHT22;1243;54.298;10.172;2023-08-06T12:34:55;21.20;1.00
2463;DHT22;1243;54.298;10.172;2023-08-06T12:37:21;21.00;1.00
2463;DHT22;1243;54.298;10.172;2023-08-06T12:39:47;20.90;1.00
2463;DHT22;1243;54.298;10.172;2023-08-06T12:42:13;21.00;1.00
2463;DHT22;1243;54.298;10.172;2023-08-06T12:44:39;21.10;1.00
2463;DHT22;1243;54.298;10.172;2023-08-06T12:47:04;21.50;1.00
2463;DHT22;1243;54.298;10.172;2023-08-06T12:49:30;21.80;1.00
2463;DHT22;1243;54.298;10.172;2023-08-06T12:51:57;21.60;1.00
2463;DHT22;1243;54.298;10.172;2023-08-06T12:54:25;21.10;1.00
2463;DHT22;1243;54.298;10.172;2023-08-06T12:56:51;20.80;1.00
2463;DHT22;1243;54.298;10.172;2023-08-06T12:59:18;20.50;1.00
2463;DHT22;1243;54.298;10.172;2023-08-06T13:01:44;20.50;1.00
2463;DHT22;1243;54.298;10.172;2023-08-06T13:04:10;20.70;1.00
2463;DHT22;1243;54.298;10.172;2023-08-06T13:06:37;20.70;1.00
2463;DHT22;1243;54.298;10.172;2023-08-06T13:09:06;20.60;1.00
2463;DHT22;1243;54.298;10.172;2023-08-06T13:11:36;20.30;1.00
2463;DHT22;1243;54.298;10.172;2023-08-06T13:14:11;20.30;1.00
2463;DHT22;1243;54.298;10.172;2023-08-06T13:16:38;20.30;1.00
2463;DHT22;1243;54.298;10.172;2023-08-06T13:19:05;20.30;1.00
2463;DHT22;1243;54.298;10.172;2023-08-06T13:24:16;20.40;1.00
2463;DHT22;1243;54.298;10.172;2023-08-06T13:26:42;20.30;1.00
2463;DHT22;1243;54.298;10.172;2023-08-06T13:29:08;20.30;1.00
2463;DHT22;1243;54.298;10.172;2023-08-06T13:31:34;20.20;1.00
2463;DHT22;1243;54.298;10.172;2023-08-06T13:33:59;20.20;1.00
2463;DHT22;1243;54.298;10.172;2023-08-06T13:36:29;20.30;1.00
2463;DHT22;1243;54.298;10.172;2023-08-06T13:38:54;20.40;1.00
2463;DHT22;1243;54.298;10.172;2023-08-06T13:41:20;20.40;1.00
2463;DHT22;1243;54.298;10.172;2023-08-06T13:43:46;20.30;1.00
2463;DHT22;1243;54.298;10.172;2023-08-06T13:46:12;20.30;1.00
2463;DHT22;1243;54.298;10.172;2023-08-06T13:48:48;20.40;1.00
2463;DHT22;1243;54.298;10.172;2023-08-06T13:51:17;20.50;1.00
2463;DHT22;1243;54.298;10.172;2023-08-06T13:53:44;20.50;1.00
2463;DHT22;1243;54.298;10.172;2023-08-06T13:56:10;20.50;1.00
2463;DHT22;1243;54.298;10.172;2023-08-06T13:58:36;20.60;1.00
2463;DHT22;1243;54.298;10.172;2023-08-06T14:01:02;20.60;1.00
2463;DHT22;1243;54.298;10.172;2023-08-06T14:03:28;20.90;1.00
2463;DHT22;1243;54.298;10.172;2023-08-06T14:05:54;20.90;1.00
2463;DHT22;1243;54.298;10.172;2023-08-06T14:08:26;20.90;1.00
2463;DHT22;1243;54.298;10.172;2023-08-06T14:10:52;20.90;1.00
2463;DHT22;1243;54.298;10.172;2023-08-06T14:13:18;21.00;1.00
2463;DHT22;1243;54.298;10.172;2023-08-06T14:15:44;21.00;1.00
2463;DHT22;1243;54.298;10.172;2023-08-06T14:18:13;21.00;1.00
2463;DHT22;1243;54.298;10.172;2023-08-06T14:20:39;21.00;1.00
2463;DHT22;1243;54.298;10.172;2023-08-06T14:23:05;20.80;1.00
2463;DHT22;1243;54.298;10.172;2023-08-06T14:25:31;20.70;1.00
2463;DHT22;1243;54.298;10.172;2023-08-06T14:27:57;20.80;1.00
2463;DHT22;1243;54.298;10.172;2023-08-06T14:30:23;20.70;1.00
2463;DHT22;1243;54.298;10.172;2023-08-06T14:32:48;20.60;99.90
2463;DHT22;1243;54.298;10.172;2023-08-06T14:35:14;20.60;1.00
2463;DHT22;1243;54.298;10.172;2023-08-06T14:37:40;20.70;99.90
2463;DHT22;1243;54.298;10.172;2023-08-06T14:40:07;20.60;99.90
2463;DHT22;1243;54.298;10.172;2023-08-06T14:42:33;20.80;1.00
2463;DHT22;1243;54.298;10.172;2023-08-06T14:44:59;20.90;1.00
2463;DHT22;1243;54.298;10.172;2023-08-06T14:47:24;20.70;99.90
2463;DHT22;1243;54.298;10.172;2023-08-06T14:49:50;20.30;99.90
2463;DHT22;1243;54.298;10.172;2023-08-06T14:52:16;20.20;99.90
2463;DHT22;1243;54.298;10.172;2023-08-06T14:54:42;20.00;99.90
2463;DHT22;1243;54.298;10.172;2023-08-06T14:57:09;19.90;99.90
2463;DHT22;1243;54.298;10.172;2023-08-06T14:59:35;19.80;99.90
2463;DHT22;1243;54.298;10.172;2023-08-06T15:02:01;19.70;99.90
2463;DHT22;1243;54.298;10.172;2023-08-06T15:04:27;19.70;99.90
2463;DHT22;1243;54.298;10.172;2023-08-06T15:06:54;19.70;99.90
2463;DHT22;1243;54.298;10.172;2023-08-06T15:09:19;19.60;99.90
2463;DHT22;1243;54.298;10.172;2023-08-06T15:11:47;19.50;99.90
2463;DHT22;1243;54.298;10.172;2023-08-06T15:14:13;19.40;99.90
2463;DHT22;1243;54.298;10.172;2023-08-06T15:16:40;19.50;99.90
2463;DHT22;1243;54.298;10.172;2023-08-06T15:19:06;19.40;99.90
2463;DHT22;1243;54.298;10.172;2023-08-06T15:21:31;19.50;99.90
2463;DHT22;1243;54.298;10.172;2023-08-06T15:23:57;19.70;99.90
2463;DHT22;1243;54.298;10.172;2023-08-06T15:26:23;19.70;99.90
2463;DHT22;1243;54.298;10.172;2023-08-06T15:28:49;19.70;99.90
2463;DHT22;1243;54.298;10.172;2023-08-06T15:31:14;19.50;99.90
2463;DHT22;1243;54.298;10.172;2023-08-06T15:33:40;19.50;1.00
2463;DHT22;1243;54.298;10.172;2023-08-06T15:36:06;19.60;1.00
2463;DHT22;1243;54.298;10.172;2023-08-06T15:38:32;19.80;1.00
2463;DHT22;1243;54.298;10.172;2023-08-06T15:40:57;19.80;1.00
2463;DHT22;1243;54.298;10.172;2023-08-06T15:43:23;19.70;1.00
2463;DHT22;1243;54.298;10.172;2023-08-06T15:45:49;19.70;1.00
2463;DHT22;1243;54.298;10.172;2023-08-06T15:48:14;19.50;1.00
2463;DHT22;1243;54.298;10.172;2023-08-06T15:50:40;19.30;99.90
2463;DHT22;1243;54.298;10.172;2023-08-06T15:53:06;19.30;1.00
2463;DHT22;1243;54.298;10.172;2023-08-06T15:55:32;19.20;1.00
2463;DHT22;1243;54.298;10.172;2023-08-06T15:57:59;19.10;1.00
2463;DHT22;1243;54.298;10.172;2023-08-06T16:00:25;19.10;1.00
2463;DHT22;1243;54.298;10.172;2023-08-06T16:02:51;19.20;1.00
2463;DHT22;1243;54.298;10.172;2023-08-06T16:05:16;19.20;1.00
2463;DHT22;1243;54.298;10.172;2023-08-06T16:07:42;19.20;1.00